Weather at Malmö Sturup Airport

Public forecast

Using degrees Celsius for public forecast. Weather courtesy of forecast.io.

Current aviation weather report (METAR) for Malmö Sturup Airport

2023/06/06 16:50 (retrieved 18 minutes ago)

ESMS 061650Z 22010KT CAVOK 22/10 Q1019

Aviation forecast (TAF) for Malmö Sturup Airport

2023/06/06 15:00 (retrieved 2 hours ago)

TAF ESMS 061409Z 0615/0715 23006KT CAVOK